createdAt,value
2022-08-17T00:03:33.223Z,24.97
2022-08-17T00:08:33.867Z,25.03
2022-08-17T00:13:36.169Z,24.92
2022-08-17T00:18:58.327Z,24.76
2022-08-17T00:23:56.139Z,24.27
2022-08-17T00:28:57.915Z,24.48
2022-08-17T00:33:56.673Z,24.23
2022-08-17T00:38:58.062Z,24.46
2022-08-17T00:44:00.853Z,24.31
2022-08-17T00:48:59.687Z,24.22
2022-08-17T00:54:08.101Z,24.49
2022-08-17T00:59:07.075Z,24.34
2022-08-17T01:04:06.691Z,24.16
2022-08-17T01:09:08.856Z,23.98
2022-08-17T01:14:10.427Z,24.02
2022-08-17T01:19:20.335Z,24.04
2022-08-17T01:24:19.359Z,24.41
2022-08-17T01:29:20.840Z,24.13
2022-08-17T01:34:22.256Z,23.97
2022-08-17T01:39:44.706Z,24.08
2022-08-17T01:44:46.929Z,24.02
2022-08-17T01:49:48.192Z,24.06
2022-08-17T01:54:49.680Z,24.12
2022-08-17T01:59:49.894Z,24.33
2022-08-17T02:04:50.793Z,24.11
2022-08-17T02:09:52.943Z,24.28
2022-08-17T02:14:56.250Z,24.02
2022-08-17T02:19:57.768Z,23.95
2022-08-17T02:25:02.329Z,24.26
2022-08-17T02:30:00.961Z,24.08
2022-08-17T02:35:01.611Z,23.92
2022-08-17T02:40:03.227Z,24.07
2022-08-17T02:45:07.834Z,23.93
2022-08-17T02:50:07.913Z,23.81
2022-08-17T02:55:16.277Z,23.52
2022-08-17T03:00:23.905Z,23.71
2022-08-17T03:05:26.490Z,23.67
2022-08-17T03:10:25.742Z,23.84
2022-08-17T03:15:30.682Z,23.60
2022-08-17T03:20:31.970Z,23.79
2022-08-17T03:25:34.793Z,23.93
2022-08-17T03:30:37.046Z,23.77
2022-08-17T03:35:40.641Z,23.59
2022-08-17T03:40:56.514Z,23.57
2022-08-17T03:46:28.369Z,23.80
2022-08-17T03:51:54.938Z,23.92
2022-08-17T03:57:06.517Z,23.84
2022-08-17T04:02:11.058Z,23.86
2022-08-17T04:07:10.867Z,23.91
2022-08-17T04:12:09.790Z,23.92
2022-08-17T04:17:07.968Z,23.89
2022-08-17T04:22:32.024Z,23.97
2022-08-17T04:27:43.663Z,24.13
2022-08-17T04:33:04.150Z,23.82
2022-08-17T04:38:18.770Z,23.82
2022-08-17T04:43:20.434Z,23.88
2022-08-17T04:48:21.304Z,24.01
2022-08-17T04:53:20.101Z,23.97
2022-08-17T04:58:19.716Z,23.93
2022-08-17T05:03:21.157Z,24.24
2022-08-17T05:08:22.968Z,24.12
2022-08-17T05:13:24.711Z,24.41
2022-08-17T05:18:24.557Z,24.37
2022-08-17T05:23:25.333Z,24.50
2022-08-17T05:28:27.402Z,24.83
2022-08-17T05:33:33.690Z,24.91
2022-08-17T05:38:35.558Z,25.00
2022-08-17T05:43:37.951Z,25.04
2022-08-17T05:48:48.329Z,25.30
2022-08-17T05:53:52.316Z,25.27
2022-08-17T05:59:27.208Z,25.45
2022-08-17T06:04:51.434Z,25.52
2022-08-17T06:10:09.063Z,25.53
2022-08-17T06:15:33.527Z,25.71
2022-08-17T06:20:54.086Z,25.65
2022-08-17T06:26:01.622Z,25.82
2022-08-17T06:31:07.032Z,26.08
2022-08-17T06:36:17.818Z,26.07
2022-08-17T06:41:24.619Z,26.30
2022-08-17T06:46:43.129Z,26.32
2022-08-17T06:52:00.922Z,26.48
2022-08-17T06:57:29.134Z,26.68
2022-08-17T07:02:53.181Z,26.86
2022-08-17T07:08:20.886Z,26.79
2022-08-17T07:13:38.333Z,27.26
2022-08-17T07:18:36.681Z,27.32
2022-08-17T07:24:29.281Z,27.40
2022-08-17T07:29:33.239Z,27.51
2022-08-17T07:34:40.046Z,27.70
2022-08-17T07:40:15.278Z,27.71
2022-08-17T07:45:20.272Z,27.99
2022-08-17T07:50:29.602Z,28.14
2022-08-17T07:55:29.980Z,28.27
2022-08-17T08:00:32.389Z,28.49
2022-08-17T08:05:50.074Z,28.64
2022-08-17T08:11:04.735Z,28.72
2022-08-17T08:16:35.648Z,28.74
2022-08-17T08:21:55.206Z,28.98
2022-08-17T08:27:28.116Z,29.18
2022-08-17T08:32:43.312Z,29.51
2022-08-17T08:37:47.119Z,29.59
2022-08-17T08:43:04.165Z,29.67
2022-08-17T08:48:12.718Z,29.96
2022-08-17T08:53:33.144Z,30.21
2022-08-17T08:59:15.191Z,30.34
2022-08-17T09:05:12.781Z,30.32
2022-08-17T09:10:28.213Z,30.65
2022-08-17T09:15:32.278Z,30.64
2022-08-17T09:20:50.673Z,30.85
2022-08-17T09:26:13.116Z,30.90
2022-08-17T09:31:17.783Z,31.14
2022-08-17T09:36:27.391Z,31.28
2022-08-17T09:41:57.305Z,31.48
2022-08-17T09:47:36.603Z,31.45
2022-08-17T09:52:38.455Z,31.58
2022-08-17T09:57:45.238Z,31.91
2022-08-17T10:02:54.285Z,32.07
2022-08-17T10:08:16.606Z,32.12
2022-08-17T10:13:47.221Z,32.31
2022-08-17T10:19:16.430Z,32.44
2022-08-17T10:25:21.197Z,32.67
2022-08-17T10:30:31.711Z,32.71
2022-08-17T10:35:34.171Z,32.97
2022-08-17T10:40:46.006Z,33.07
2022-08-17T10:46:09.532Z,33.16
2022-08-17T10:51:40.725Z,33.28
2022-08-17T10:56:47.327Z,33.16
2022-08-17T11:02:04.455Z,33.37
2022-08-17T11:07:28.093Z,33.32
2022-08-17T11:12:39.843Z,33.43
2022-08-17T11:17:52.756Z,33.68
2022-08-17T11:23:07.769Z,33.71
2022-08-17T11:28:40.211Z,33.84
2022-08-17T11:33:50.222Z,34.19
2022-08-17T11:39:23.347Z,34.22
2022-08-17T11:44:32.142Z,34.10
2022-08-17T11:50:37.839Z,34.30
2022-08-17T11:56:19.619Z,34.46
2022-08-17T12:01:29.561Z,34.67
2022-08-17T12:06:50.713Z,34.84
2022-08-17T12:12:12.818Z,34.94
2022-08-17T12:17:39.713Z,34.84
2022-08-17T12:23:01.433Z,35.21
2022-08-17T12:28:04.815Z,35.26
2022-08-17T12:33:28.042Z,35.04
2022-08-17T12:38:33.180Z,35.39
2022-08-17T12:43:33.875Z,35.17
2022-08-17T12:48:58.780Z,35.34
2022-08-17T12:54:03.441Z,35.34
2022-08-17T12:59:02.443Z,35.33
2022-08-17T13:04:07.805Z,35.49
2022-08-17T13:09:14.464Z,36.11
2022-08-17T13:14:12.528Z,36.75
2022-08-17T13:19:18.971Z,37.79
2022-08-17T13:24:38.760Z,39.70
2022-08-17T13:29:54.635Z,41.13
2022-08-17T13:35:15.085Z,41.00
2022-08-17T13:40:20.251Z,41.39
2022-08-17T13:45:36.103Z,38.97
2022-08-17T13:50:45.813Z,36.96
2022-08-17T13:56:01.860Z,36.80
2022-08-17T14:01:36.338Z,36.46
2022-08-17T14:06:52.862Z,35.27
2022-08-17T14:11:57.089Z,35.18
2022-08-17T14:16:57.708Z,35.18
2022-08-17T14:22:02.152Z,35.41
2022-08-17T14:27:01.788Z,36.02
2022-08-17T14:32:05.722Z,37.42
2022-08-17T14:37:07.079Z,37.43
2022-08-17T14:42:05.665Z,37.06
2022-08-17T14:47:04.638Z,36.87
2022-08-17T14:52:03.736Z,36.23
2022-08-17T14:57:23.360Z,36.33
2022-08-17T15:02:31.118Z,35.89
2022-08-17T15:07:37.691Z,36.05
2022-08-17T15:12:45.844Z,36.12
2022-08-17T15:17:48.895Z,36.85
2022-08-17T15:28:11.227Z,36.05
2022-08-17T15:33:29.979Z,35.70
2022-08-17T15:38:36.925Z,35.36
2022-08-17T15:43:39.028Z,35.11
2022-08-17T15:49:12.361Z,34.60
2022-08-17T16:00:31.282Z,33.33
2022-08-17T16:06:41.333Z,32.99
2022-08-17T16:11:30.027Z,32.82
2022-08-17T16:16:31.507Z,32.77
2022-08-17T16:21:31.168Z,32.75
2022-08-17T16:26:47.396Z,32.24
2022-08-17T16:31:49.301Z,32.36
2022-08-17T16:37:02.996Z,32.65
2022-08-17T16:42:06.241Z,32.61
2022-08-17T16:47:10.846Z,32.78
2022-08-17T16:52:32.567Z,32.25
2022-08-17T16:57:37.811Z,32.30
2022-08-17T17:03:22.478Z,32.08
2022-08-17T17:08:38.414Z,31.81
2022-08-17T17:14:21.144Z,31.44
2022-08-17T17:19:35.096Z,31.55
2022-08-17T17:24:49.959Z,31.16
2022-08-17T17:29:58.340Z,31.12
2022-08-17T17:35:02.346Z,31.09
2022-08-17T17:40:13.103Z,31.14
2022-08-17T17:45:33.645Z,31.18
2022-08-17T17:51:10.986Z,31.12
2022-08-17T17:56:57.186Z,30.92
2022-08-17T18:02:00.511Z,30.83
2022-08-17T18:07:13.691Z,30.48
2022-08-17T18:12:26.191Z,30.54
2022-08-17T18:17:30.044Z,30.14
2022-08-17T18:22:31.295Z,30.22
2022-08-17T18:27:34.603Z,30.14
2022-08-17T18:32:41.356Z,29.98
2022-08-17T18:37:55.859Z,29.96
2022-08-17T18:42:59.769Z,29.93
2022-08-17T18:48:00.961Z,29.86
2022-08-17T18:53:34.203Z,29.69
2022-08-17T18:58:51.070Z,29.31
2022-08-17T19:03:49.584Z,29.65
2022-08-17T19:08:50.393Z,29.57
2022-08-17T19:14:21.495Z,29.43
2022-08-17T19:19:36.780Z,29.48
2022-08-17T19:24:47.961Z,29.03
2022-08-17T19:29:52.533Z,29.21
2022-08-17T19:34:54.417Z,29.06
2022-08-17T19:40:24.517Z,28.93
2022-08-17T19:45:50.330Z,28.97
2022-08-17T19:50:57.552Z,29.11
2022-08-17T19:55:58.691Z,28.93
2022-08-17T20:00:58.850Z,28.54
2022-08-17T20:06:12.705Z,28.49
2022-08-17T20:11:26.802Z,28.64
2022-08-17T20:16:24.982Z,28.63
2022-08-17T20:21:49.732Z,28.62
2022-08-17T20:26:58.114Z,28.56
2022-08-17T20:32:01.279Z,28.66
2022-08-17T20:37:01.105Z,28.35
2022-08-17T20:42:25.796Z,28.05
2022-08-17T20:47:47.026Z,28.22
2022-08-17T20:53:03.164Z,27.76
2022-08-17T20:58:17.401Z,27.85
2022-08-17T21:03:32.236Z,27.78
2022-08-17T21:09:13.686Z,27.84
2022-08-17T21:14:19.946Z,27.73
2022-08-17T21:20:00.203Z,27.71
2022-08-17T21:25:35.328Z,27.80
2022-08-17T21:30:32.757Z,27.70
2022-08-17T21:36:01.593Z,27.18
2022-08-17T21:41:01.792Z,27.16
2022-08-17T21:46:05.150Z,27.22
2022-08-17T21:51:08.408Z,27.52
2022-08-17T21:56:07.621Z,27.11
2022-08-17T22:01:30.560Z,27.06
2022-08-17T22:06:31.231Z,27.16
2022-08-17T22:11:29.792Z,26.87
2022-08-17T22:16:30.869Z,26.89
2022-08-17T22:21:28.678Z,26.90
2022-08-17T22:26:49.964Z,26.75
2022-08-17T22:31:57.730Z,26.59
2022-08-17T22:37:26.714Z,26.90
2022-08-17T22:42:26.257Z,26.78
2022-08-17T22:47:32.485Z,26.74
2022-08-17T22:53:22.794Z,26.79
2022-08-17T22:58:44.183Z,26.77
2022-08-17T23:04:13.165Z,26.27
2022-08-17T23:09:15.110Z,25.90
2022-08-17T23:14:14.691Z,26.00
2022-08-17T23:19:21.759Z,25.95
2022-08-17T23:24:24.948Z,25.12
2022-08-17T23:29:32.752Z,25.97
2022-08-17T23:34:31.368Z,25.22
2022-08-17T23:39:29.793Z,24.99
2022-08-17T23:44:31.823Z,25.07
2022-08-17T23:49:30.086Z,25.39
2022-08-17T23:54:49.260Z,25.34
2022-08-17T23:59:51.238Z,25.59
